sensor_id;sensor_type;location;lat;lon;timestamp;P1;durP1;ratioP1;P2;durP2;ratioP2
26582;SDS011;14230;45.382;10.998;2022-12-29T00:00:59;28.55;;;16.05;;
26582;SDS011;14230;45.382;10.998;2022-12-29T00:03:27;24.13;;;15.00;;
26582;SDS011;14230;45.382;10.998;2022-12-29T00:05:55;20.67;;;14.32;;
26582;SDS011;14230;45.382;10.998;2022-12-29T00:08:24;21.95;;;13.77;;
26582;SDS011;14230;45.382;10.998;2022-12-29T00:13:41;28.60;;;16.10;;
26582;SDS011;14230;45.382;10.998;2022-12-29T00:16:27;33.10;;;18.88;;
26582;SDS011;14230;45.382;10.998;2022-12-29T00:18:56;25.50;;;15.93;;
26582;SDS011;14230;45.382;10.998;2022-12-29T00:21:23;27.23;;;16.98;;
26582;SDS011;14230;45.382;10.998;2022-12-29T00:24:12;29.08;;;15.57;;
26582;SDS011;14230;45.382;10.998;2022-12-29T00:29:48;24.60;;;15.05;;
26582;SDS011;14230;45.382;10.998;2022-12-29T00:32:34;26.05;;;14.60;;
26582;SDS011;14230;45.382;10.998;2022-12-29T00:35:28;23.83;;;15.57;;
26582;SDS011;14230;45.382;10.998;2022-12-29T00:38:02;26.95;;;15.25;;
26582;SDS011;14230;45.382;10.998;2022-12-29T00:40:52;26.17;;;15.82;;
26582;SDS011;14230;45.382;10.998;2022-12-29T00:43:38;26.20;;;16.50;;
26582;SDS011;14230;45.382;10.998;2022-12-29T00:46:24;29.88;;;15.43;;
26582;SDS011;14230;45.382;10.998;2022-12-29T00:48:51;23.23;;;15.48;;
26582;SDS011;14230;45.382;10.998;2022-12-29T00:51:37;30.80;;;17.25;;
26582;SDS011;14230;45.382;10.998;2022-12-29T00:54:04;32.65;;;16.15;;
26582;SDS011;14230;45.382;10.998;2022-12-29T00:56:32;27.48;;;14.88;;
26582;SDS011;14230;45.382;10.998;2022-12-29T00:59:03;29.27;;;16.23;;
26582;SDS011;14230;45.382;10.998;2022-12-29T01:01:33;26.88;;;14.73;;
26582;SDS011;14230;45.382;10.998;2022-12-29T01:04:02;37.25;;;18.02;;
26582;SDS011;14230;45.382;10.998;2022-12-29T01:06:31;33.83;;;19.50;;
26582;SDS011;14230;45.382;10.998;2022-12-29T01:08:59;33.92;;;18.70;;
26582;SDS011;14230;45.382;10.998;2022-12-29T01:11:45;32.60;;;19.05;;
26582;SDS011;14230;45.382;10.998;2022-12-29T01:14:12;33.80;;;20.13;;
26582;SDS011;14230;45.382;10.998;2022-12-29T01:16:40;30.90;;;17.95;;
26582;SDS011;14230;45.382;10.998;2022-12-29T01:19:08;33.95;;;17.63;;
26582;SDS011;14230;45.382;10.998;2022-12-29T01:21:36;29.77;;;18.70;;
26582;SDS011;14230;45.382;10.998;2022-12-29T01:24:03;34.42;;;19.38;;
26582;SDS011;14230;45.382;10.998;2022-12-29T01:26:31;31.60;;;18.52;;
26582;SDS011;14230;45.382;10.998;2022-12-29T01:28:58;28.65;;;16.73;;
26582;SDS011;14230;45.382;10.998;2022-12-29T01:31:26;28.40;;;15.95;;
26582;SDS011;14230;45.382;10.998;2022-12-29T01:33:53;27.02;;;16.52;;
26582;SDS011;14230;45.382;10.998;2022-12-29T01:36:20;22.95;;;14.60;;
26582;SDS011;14230;45.382;10.998;2022-12-29T01:38:48;25.60;;;16.15;;
26582;SDS011;14230;45.382;10.998;2022-12-29T01:41:16;23.98;;;15.45;;
26582;SDS011;14230;45.382;10.998;2022-12-29T01:43:51;24.30;;;14.80;;
26582;SDS011;14230;45.382;10.998;2022-12-29T01:46:31;25.38;;;14.77;;
26582;SDS011;14230;45.382;10.998;2022-12-29T01:51:42;21.83;;;14.23;;
26582;SDS011;14230;45.382;10.998;2022-12-29T01:54:22;21.33;;;13.88;;
26582;SDS011;14230;45.382;10.998;2022-12-29T01:56:55;18.95;;;12.95;;
26582;SDS011;14230;45.382;10.998;2022-12-29T01:59:26;28.75;;;15.55;;
26582;SDS011;14230;45.382;10.998;2022-12-29T02:01:58;22.58;;;14.40;;
26582;SDS011;14230;45.382;10.998;2022-12-29T02:04:26;28.65;;;13.80;;
26582;SDS011;14230;45.382;10.998;2022-12-29T02:06:57;22.73;;;15.13;;
26582;SDS011;14230;45.382;10.998;2022-12-29T02:09:30;28.30;;;15.75;;
26582;SDS011;14230;45.382;10.998;2022-12-29T02:11:58;25.25;;;13.98;;
26582;SDS011;14230;45.382;10.998;2022-12-29T02:14:26;23.30;;;15.60;;
26582;SDS011;14230;45.382;10.998;2022-12-29T02:17:01;26.52;;;15.45;;
26582;SDS011;14230;45.382;10.998;2022-12-29T02:20:04;23.38;;;15.75;;
26582;SDS011;14230;45.382;10.998;2022-12-29T02:23:05;25.17;;;16.50;;
26582;SDS011;14230;45.382;10.998;2022-12-29T02:34:47;28.15;;;16.00;;
26582;SDS011;14230;45.382;10.998;2022-12-29T02:37:59;32.80;;;17.58;;
26582;SDS011;14230;45.382;10.998;2022-12-29T02:51:33;34.50;;;20.20;;
26582;SDS011;14230;45.382;10.998;2022-12-29T02:54:06;31.75;;;20.35;;
26582;SDS011;14230;45.382;10.998;2022-12-29T02:56:52;28.50;;;17.33;;
26582;SDS011;14230;45.382;10.998;2022-12-29T02:59:20;25.50;;;16.88;;
26582;SDS011;14230;45.382;10.998;2022-12-29T03:07:20;34.35;;;19.83;;
26582;SDS011;14230;45.382;10.998;2022-12-29T03:12:59;31.60;;;19.38;;
26582;SDS011;14230;45.382;10.998;2022-12-29T03:19:02;35.53;;;21.25;;
26582;SDS011;14230;45.382;10.998;2022-12-29T03:21:37;33.05;;;20.50;;
26582;SDS011;14230;45.382;10.998;2022-12-29T03:24:43;36.28;;;21.88;;
26582;SDS011;14230;45.382;10.998;2022-12-29T03:27:22;38.13;;;22.13;;
26582;SDS011;14230;45.382;10.998;2022-12-29T03:29:57;39.30;;;22.73;;
26582;SDS011;14230;45.382;10.998;2022-12-29T03:32:36;39.67;;;22.02;;
26582;SDS011;14230;45.382;10.998;2022-12-29T03:35:17;35.85;;;22.88;;
26582;SDS011;14230;45.382;10.998;2022-12-29T03:38:33;34.20;;;21.27;;
26582;SDS011;14230;45.382;10.998;2022-12-29T03:40:45;34.75;;;21.52;;
26582;SDS011;14230;45.382;10.998;2022-12-29T03:43:21;34.97;;;21.25;;
26582;SDS011;14230;45.382;10.998;2022-12-29T03:45:49;35.90;;;21.48;;
26582;SDS011;14230;45.382;10.998;2022-12-29T03:48:17;36.20;;;21.55;;
26582;SDS011;14230;45.382;10.998;2022-12-29T03:50:45;38.83;;;22.63;;
26582;SDS011;14230;45.382;10.998;2022-12-29T03:53:13;41.78;;;24.10;;
26582;SDS011;14230;45.382;10.998;2022-12-29T03:55:41;38.10;;;22.58;;
26582;SDS011;14230;45.382;10.998;2022-12-29T03:58:09;44.45;;;23.73;;
26582;SDS011;14230;45.382;10.998;2022-12-29T04:00:53;38.53;;;22.90;;
26582;SDS011;14230;45.382;10.998;2022-12-29T04:03:20;41.42;;;24.33;;
26582;SDS011;14230;45.382;10.998;2022-12-29T04:05:48;43.13;;;24.95;;
26582;SDS011;14230;45.382;10.998;2022-12-29T04:08:16;40.42;;;24.05;;
26582;SDS011;14230;45.382;10.998;2022-12-29T04:10:43;47.63;;;24.23;;
26582;SDS011;14230;45.382;10.998;2022-12-29T04:13:12;38.40;;;23.42;;
26582;SDS011;14230;45.382;10.998;2022-12-29T04:15:40;42.45;;;24.92;;
26582;SDS011;14230;45.382;10.998;2022-12-29T04:18:10;43.25;;;23.38;;
26582;SDS011;14230;45.382;10.998;2022-12-29T04:20:38;37.42;;;24.05;;
26582;SDS011;14230;45.382;10.998;2022-12-29T04:23:23;39.05;;;24.15;;
26582;SDS011;14230;45.382;10.998;2022-12-29T04:25:51;32.70;;;21.98;;
26582;SDS011;14230;45.382;10.998;2022-12-29T04:28:19;33.33;;;20.40;;
26582;SDS011;14230;45.382;10.998;2022-12-29T04:31:22;41.35;;;22.73;;
26582;SDS011;14230;45.382;10.998;2022-12-29T04:33:49;38.08;;;22.67;;
26582;SDS011;14230;45.382;10.998;2022-12-29T04:36:17;39.60;;;22.25;;
26582;SDS011;14230;45.382;10.998;2022-12-29T04:38:45;35.20;;;21.08;;
26582;SDS011;14230;45.382;10.998;2022-12-29T04:41:12;34.00;;;20.33;;
26582;SDS011;14230;45.382;10.998;2022-12-29T04:43:40;34.35;;;20.45;;
26582;SDS011;14230;45.382;10.998;2022-12-29T04:46:26;34.05;;;21.17;;
26582;SDS011;14230;45.382;10.998;2022-12-29T04:49:12;33.58;;;21.00;;
26582;SDS011;14230;45.382;10.998;2022-12-29T04:52:06;32.15;;;21.30;;
26582;SDS011;14230;45.382;10.998;2022-12-29T04:54:36;39.38;;;23.35;;
26582;SDS011;14230;45.382;10.998;2022-12-29T04:57:15;36.85;;;21.98;;
26582;SDS011;14230;45.382;10.998;2022-12-29T04:59:48;43.35;;;23.35;;
26582;SDS011;14230;45.382;10.998;2022-12-29T05:02:16;36.13;;;19.77;;
26582;SDS011;14230;45.382;10.998;2022-12-29T05:04:46;32.00;;;20.02;;
26582;SDS011;14230;45.382;10.998;2022-12-29T05:07:13;33.58;;;20.33;;
26582;SDS011;14230;45.382;10.998;2022-12-29T05:09:43;35.03;;;20.13;;
26582;SDS011;14230;45.382;10.998;2022-12-29T05:12:10;32.00;;;20.63;;
26582;SDS011;14230;45.382;10.998;2022-12-29T05:14:46;39.88;;;21.35;;
26582;SDS011;14230;45.382;10.998;2022-12-29T05:17:13;36.25;;;22.42;;
26582;SDS011;14230;45.382;10.998;2022-12-29T05:19:41;36.85;;;21.50;;
26582;SDS011;14230;45.382;10.998;2022-12-29T05:22:08;33.08;;;20.33;;
26582;SDS011;14230;45.382;10.998;2022-12-29T05:24:37;31.80;;;21.05;;
26582;SDS011;14230;45.382;10.998;2022-12-29T05:27:05;32.22;;;20.33;;
26582;SDS011;14230;45.382;10.998;2022-12-29T05:29:47;32.47;;;18.58;;
26582;SDS011;14230;45.382;10.998;2022-12-29T05:32:15;32.65;;;19.98;;
26582;SDS011;14230;45.382;10.998;2022-12-29T05:34:44;33.15;;;20.70;;
26582;SDS011;14230;45.382;10.998;2022-12-29T05:37:12;33.92;;;21.30;;
26582;SDS011;14230;45.382;10.998;2022-12-29T05:39:41;31.02;;;20.73;;
26582;SDS011;14230;45.382;10.998;2022-12-29T05:42:08;35.13;;;21.20;;
26582;SDS011;14230;45.382;10.998;2022-12-29T05:44:47;31.63;;;19.50;;
26582;SDS011;14230;45.382;10.998;2022-12-29T05:47:52;30.52;;;20.50;;
26582;SDS011;14230;45.382;10.998;2022-12-29T05:50:42;29.98;;;21.85;;
26582;SDS011;14230;45.382;10.998;2022-12-29T05:53:16;41.78;;;21.92;;
26582;SDS011;14230;45.382;10.998;2022-12-29T05:55:48;34.60;;;22.85;;
26582;SDS011;14230;45.382;10.998;2022-12-29T05:58:16;40.65;;;21.80;;
26582;SDS011;14230;45.382;10.998;2022-12-29T06:00:44;35.88;;;22.50;;
26582;SDS011;14230;45.382;10.998;2022-12-29T06:03:12;38.83;;;24.52;;
26582;SDS011;14230;45.382;10.998;2022-12-29T06:05:41;37.97;;;22.88;;
26582;SDS011;14230;45.382;10.998;2022-12-29T06:08:08;31.90;;;21.58;;
26582;SDS011;14230;45.382;10.998;2022-12-29T06:10:36;34.22;;;21.60;;
26582;SDS011;14230;45.382;10.998;2022-12-29T06:13:07;40.20;;;21.95;;
26582;SDS011;14230;45.382;10.998;2022-12-29T06:15:39;32.78;;;20.38;;
26582;SDS011;14230;45.382;10.998;2022-12-29T06:18:07;32.25;;;20.65;;
26582;SDS011;14230;45.382;10.998;2022-12-29T06:20:45;31.35;;;22.05;;
26582;SDS011;14230;45.382;10.998;2022-12-29T06:23:14;31.77;;;19.92;;
26582;SDS011;14230;45.382;10.998;2022-12-29T06:25:43;35.67;;;22.30;;
26582;SDS011;14230;45.382;10.998;2022-12-29T06:28:11;35.80;;;21.42;;
26582;SDS011;14230;45.382;10.998;2022-12-29T06:30:39;29.10;;;19.05;;
26582;SDS011;14230;45.382;10.998;2022-12-29T06:33:13;32.75;;;19.88;;
26582;SDS011;14230;45.382;10.998;2022-12-29T06:35:41;36.22;;;20.50;;
26582;SDS011;14230;45.382;10.998;2022-12-29T06:38:09;37.28;;;19.83;;
26582;SDS011;14230;45.382;10.998;2022-12-29T06:40:36;33.38;;;20.13;;
26582;SDS011;14230;45.382;10.998;2022-12-29T06:43:15;34.70;;;21.67;;
26582;SDS011;14230;45.382;10.998;2022-12-29T06:46:07;28.98;;;19.80;;
26582;SDS011;14230;45.382;10.998;2022-12-29T06:48:34;32.13;;;21.27;;
26582;SDS011;14230;45.382;10.998;2022-12-29T06:51:02;31.55;;;20.80;;
26582;SDS011;14230;45.382;10.998;2022-12-29T06:53:29;35.53;;;21.58;;
26582;SDS011;14230;45.382;10.998;2022-12-29T06:55:57;39.08;;;22.42;;
26582;SDS011;14230;45.382;10.998;2022-12-29T06:58:24;36.25;;;22.48;;
26582;SDS011;14230;45.382;10.998;2022-12-29T07:00:51;34.67;;;21.80;;
26582;SDS011;14230;45.382;10.998;2022-12-29T07:03:19;39.15;;;22.25;;
26582;SDS011;14230;45.382;10.998;2022-12-29T07:05:46;38.60;;;23.33;;
26582;SDS011;14230;45.382;10.998;2022-12-29T07:08:14;37.67;;;22.65;;
26582;SDS011;14230;45.382;10.998;2022-12-29T07:10:43;33.60;;;20.73;;
26582;SDS011;14230;45.382;10.998;2022-12-29T07:13:10;33.45;;;21.35;;
26582;SDS011;14230;45.382;10.998;2022-12-29T07:15:37;33.60;;;22.35;;
26582;SDS011;14230;45.382;10.998;2022-12-29T07:18:05;50.75;;;28.33;;
26582;SDS011;14230;45.382;10.998;2022-12-29T07:20:32;41.42;;;25.38;;
26582;SDS011;14230;45.382;10.998;2022-12-29T07:23:00;35.60;;;23.83;;
26582;SDS011;14230;45.382;10.998;2022-12-29T07:25:27;35.25;;;21.92;;
26582;SDS011;14230;45.382;10.998;2022-12-29T07:27:56;35.83;;;21.15;;
26582;SDS011;14230;45.382;10.998;2022-12-29T07:30:23;33.13;;;22.00;;
26582;SDS011;14230;45.382;10.998;2022-12-29T07:32:51;34.67;;;20.83;;
26582;SDS011;14230;45.382;10.998;2022-12-29T07:35:18;33.15;;;19.85;;
26582;SDS011;14230;45.382;10.998;2022-12-29T07:37:46;31.00;;;18.65;;
26582;SDS011;14230;45.382;10.998;2022-12-29T07:40:13;33.95;;;19.60;;
26582;SDS011;14230;45.382;10.998;2022-12-29T07:42:41;29.00;;;18.58;;
26582;SDS011;14230;45.382;10.998;2022-12-29T07:45:09;30.13;;;20.45;;
26582;SDS011;14230;45.382;10.998;2022-12-29T07:47:48;33.35;;;20.15;;
26582;SDS011;14230;45.382;10.998;2022-12-29T07:50:16;38.53;;;22.20;;
26582;SDS011;14230;45.382;10.998;2022-12-29T07:52:43;33.83;;;20.35;;
26582;SDS011;14230;45.382;10.998;2022-12-29T07:55:12;34.65;;;22.67;;
26582;SDS011;14230;45.382;10.998;2022-12-29T07:57:40;31.73;;;20.20;;
26582;SDS011;14230;45.382;10.998;2022-12-29T08:00:08;28.13;;;18.60;;
26582;SDS011;14230;45.382;10.998;2022-12-29T08:02:38;25.13;;;17.95;;
26582;SDS011;14230;45.382;10.998;2022-12-29T08:05:06;29.80;;;19.40;;
26582;SDS011;14230;45.382;10.998;2022-12-29T08:07:34;26.17;;;18.15;;
26582;SDS011;14230;45.382;10.998;2022-12-29T08:10:01;25.48;;;17.58;;
26582;SDS011;14230;45.382;10.998;2022-12-29T08:12:29;30.40;;;17.65;;
26582;SDS011;14230;45.382;10.998;2022-12-29T08:14:56;26.30;;;16.83;;
26582;SDS011;14230;45.382;10.998;2022-12-29T08:17:24;29.85;;;17.27;;
26582;SDS011;14230;45.382;10.998;2022-12-29T08:19:51;40.53;;;21.58;;
26582;SDS011;14230;45.382;10.998;2022-12-29T08:22:19;41.05;;;24.50;;
26582;SDS011;14230;45.382;10.998;2022-12-29T08:24:46;41.55;;;23.98;;
26582;SDS011;14230;45.382;10.998;2022-12-29T08:27:14;29.15;;;18.80;;
26582;SDS011;14230;45.382;10.998;2022-12-29T08:29:46;30.67;;;17.88;;
26582;SDS011;14230;45.382;10.998;2022-12-29T08:32:14;23.10;;;17.35;;
26582;SDS011;14230;45.382;10.998;2022-12-29T08:34:42;27.92;;;17.15;;
26582;SDS011;14230;45.382;10.998;2022-12-29T08:37:09;26.95;;;17.63;;
26582;SDS011;14230;45.382;10.998;2022-12-29T08:39:37;27.63;;;17.48;;
26582;SDS011;14230;45.382;10.998;2022-12-29T08:42:05;24.63;;;17.17;;
26582;SDS011;14230;45.382;10.998;2022-12-29T08:44:33;32.58;;;18.45;;
26582;SDS011;14230;45.382;10.998;2022-12-29T08:47:00;29.83;;;18.00;;
26582;SDS011;14230;45.382;10.998;2022-12-29T08:49:28;30.70;;;18.50;;
26582;SDS011;14230;45.382;10.998;2022-12-29T08:51:55;29.88;;;17.67;;
26582;SDS011;14230;45.382;10.998;2022-12-29T08:54:23;30.98;;;18.65;;
26582;SDS011;14230;45.382;10.998;2022-12-29T08:56:51;28.48;;;18.27;;
26582;SDS011;14230;45.382;10.998;2022-12-29T08:59:19;29.33;;;18.42;;
26582;SDS011;14230;45.382;10.998;2022-12-29T09:01:47;32.75;;;19.13;;
26582;SDS011;14230;45.382;10.998;2022-12-29T09:04:15;29.98;;;17.95;;
26582;SDS011;14230;45.382;10.998;2022-12-29T09:06:44;43.13;;;20.23;;
26582;SDS011;14230;45.382;10.998;2022-12-29T09:09:13;30.02;;;18.35;;
26582;SDS011;14230;45.382;10.998;2022-12-29T09:11:40;30.20;;;19.75;;
26582;SDS011;14230;45.382;10.998;2022-12-29T09:14:08;28.17;;;19.63;;
26582;SDS011;14230;45.382;10.998;2022-12-29T09:16:36;31.48;;;21.20;;
26582;SDS011;14230;45.382;10.998;2022-12-29T09:19:04;34.15;;;20.35;;
26582;SDS011;14230;45.382;10.998;2022-12-29T09:21:32;40.63;;;23.33;;
26582;SDS011;14230;45.382;10.998;2022-12-29T09:24:00;41.75;;;25.13;;
26582;SDS011;14230;45.382;10.998;2022-12-29T09:26:27;34.72;;;22.25;;
26582;SDS011;14230;45.382;10.998;2022-12-29T09:28:54;36.75;;;21.65;;
26582;SDS011;14230;45.382;10.998;2022-12-29T09:31:22;32.90;;;21.58;;
26582;SDS011;14230;45.382;10.998;2022-12-29T09:33:50;30.27;;;19.58;;
26582;SDS011;14230;45.382;10.998;2022-12-29T09:36:17;32.50;;;19.65;;
26582;SDS011;14230;45.382;10.998;2022-12-29T09:38:45;32.83;;;21.67;;
26582;SDS011;14230;45.382;10.998;2022-12-29T09:41:14;39.85;;;25.08;;
26582;SDS011;14230;45.382;10.998;2022-12-29T09:46:27;39.75;;;25.77;;
26582;SDS011;14230;45.382;10.998;2022-12-29T09:49:06;44.83;;;27.15;;
26582;SDS011;14230;45.382;10.998;2022-12-29T09:51:43;45.17;;;27.77;;
26582;SDS011;14230;45.382;10.998;2022-12-29T09:57:32;48.80;;;28.45;;
26582;SDS011;14230;45.382;10.998;2022-12-29T10:00:11;45.20;;;27.02;;
26582;SDS011;14230;45.382;10.998;2022-12-29T10:02:46;45.10;;;26.48;;
26582;SDS011;14230;45.382;10.998;2022-12-29T10:05:26;46.42;;;27.63;;
26582;SDS011;14230;45.382;10.998;2022-12-29T10:10:56;45.78;;;27.73;;
26582;SDS011;14230;45.382;10.998;2022-12-29T10:13:40;48.42;;;29.02;;
26582;SDS011;14230;45.382;10.998;2022-12-29T10:16:31;45.80;;;29.13;;
26582;SDS011;14230;45.382;10.998;2022-12-29T10:22:00;50.05;;;28.55;;
26582;SDS011;14230;45.382;10.998;2022-12-29T10:24:30;47.85;;;30.42;;
26582;SDS011;14230;45.382;10.998;2022-12-29T10:27:00;47.60;;;30.17;;
26582;SDS011;14230;45.382;10.998;2022-12-29T10:29:32;49.33;;;30.70;;
26582;SDS011;14230;45.382;10.998;2022-12-29T10:32:09;57.80;;;32.65;;
26582;SDS011;14230;45.382;10.998;2022-12-29T10:35:00;48.28;;;28.67;;
26582;SDS011;14230;45.382;10.998;2022-12-29T10:40:27;52.95;;;27.02;;
26582;SDS011;14230;45.382;10.998;2022-12-29T10:42:59;41.80;;;26.30;;
26582;SDS011;14230;45.382;10.998;2022-12-29T10:45:29;50.47;;;28.55;;
26582;SDS011;14230;45.382;10.998;2022-12-29T10:50:42;53.35;;;29.90;;
26582;SDS011;14230;45.382;10.998;2022-12-29T10:53:12;52.88;;;30.25;;
26582;SDS011;14230;45.382;10.998;2022-12-29T10:55:51;54.95;;;28.98;;
26582;SDS011;14230;45.382;10.998;2022-12-29T10:58:20;47.92;;;29.65;;
26582;SDS011;14230;45.382;10.998;2022-12-29T11:00:49;56.10;;;30.17;;
26582;SDS011;14230;45.382;10.998;2022-12-29T11:06:27;54.92;;;30.58;;
26582;SDS011;14230;45.382;10.998;2022-12-29T11:09:07;47.58;;;28.67;;
26582;SDS011;14230;45.382;10.998;2022-12-29T11:11:43;52.20;;;29.50;;
26582;SDS011;14230;45.382;10.998;2022-12-29T11:14:16;46.13;;;28.83;;
26582;SDS011;14230;45.382;10.998;2022-12-29T11:16:56;47.15;;;28.75;;
26582;SDS011;14230;45.382;10.998;2022-12-29T11:19:32;48.13;;;28.95;;
26582;SDS011;14230;45.382;10.998;2022-12-29T11:22:22;45.53;;;28.15;;
26582;SDS011;14230;45.382;10.998;2022-12-29T11:24:53;43.38;;;26.75;;
26582;SDS011;14230;45.382;10.998;2022-12-29T11:27:22;41.38;;;26.40;;
26582;SDS011;14230;45.382;10.998;2022-12-29T11:29:52;40.85;;;26.27;;
26582;SDS011;14230;45.382;10.998;2022-12-29T11:32:21;46.78;;;27.38;;
26582;SDS011;14230;45.382;10.998;2022-12-29T11:34:58;42.83;;;26.73;;
26582;SDS011;14230;45.382;10.998;2022-12-29T11:37:37;41.63;;;24.58;;
26582;SDS011;14230;45.382;10.998;2022-12-29T11:40:09;38.97;;;26.00;;
26582;SDS011;14230;45.382;10.998;2022-12-29T11:42:51;37.05;;;24.95;;
26582;SDS011;14230;45.382;10.998;2022-12-29T11:45:26;40.45;;;25.20;;
26582;SDS011;14230;45.382;10.998;2022-12-29T11:47:59;42.35;;;27.58;;
26582;SDS011;14230;45.382;10.998;2022-12-29T11:50:35;48.40;;;28.48;;
26582;SDS011;14230;45.382;10.998;2022-12-29T11:53:28;56.47;;;28.77;;
26582;SDS011;14230;45.382;10.998;2022-12-29T11:56:05;45.78;;;28.15;;
26582;SDS011;14230;45.382;10.998;2022-12-29T11:58:36;47.95;;;28.55;;
26582;SDS011;14230;45.382;10.998;2022-12-29T12:04:05;54.88;;;31.38;;
26582;SDS011;14230;45.382;10.998;2022-12-29T12:06:49;52.75;;;29.60;;
26582;SDS011;14230;45.382;10.998;2022-12-29T12:09:31;55.25;;;30.77;;
26582;SDS011;14230;45.382;10.998;2022-12-29T12:12:03;57.25;;;32.33;;
26582;SDS011;14230;45.382;10.998;2022-12-29T12:14:38;57.83;;;32.58;;
26582;SDS011;14230;45.382;10.998;2022-12-29T12:22:42;52.33;;;32.67;;
26582;SDS011;14230;45.382;10.998;2022-12-29T12:25:31;51.30;;;30.70;;
26582;SDS011;14230;45.382;10.998;2022-12-29T12:28:09;47.95;;;28.90;;
26582;SDS011;14230;45.382;10.998;2022-12-29T12:30:43;50.00;;;27.98;;
26582;SDS011;14230;45.382;10.998;2022-12-29T12:47:43;45.92;;;30.02;;
26582;SDS011;14230;45.382;10.998;2022-12-29T12:50:31;52.17;;;30.35;;
26582;SDS011;14230;45.382;10.998;2022-12-29T12:53:20;52.28;;;30.23;;
26582;SDS011;14230;45.382;10.998;2022-12-29T12:56:14;51.35;;;30.10;;
26582;SDS011;14230;45.382;10.998;2022-12-29T12:59:13;49.72;;;32.75;;
26582;SDS011;14230;45.382;10.998;2022-12-29T13:02:01;52.67;;;30.75;;
26582;SDS011;14230;45.382;10.998;2022-12-29T13:09:59;52.72;;;33.10;;
26582;SDS011;14230;45.382;10.998;2022-12-29T13:23:47;61.15;;;34.60;;
26582;SDS011;14230;45.382;10.998;2022-12-29T13:31:56;71.35;;;39.50;;
26582;SDS011;14230;45.382;10.998;2022-12-29T13:37:22;70.93;;;32.67;;
26582;SDS011;14230;45.382;10.998;2022-12-29T13:39:55;49.38;;;29.48;;
26582;SDS011;14230;45.382;10.998;2022-12-29T13:42:26;53.85;;;30.35;;
26582;SDS011;14230;45.382;10.998;2022-12-29T13:44:56;47.05;;;30.05;;
26582;SDS011;14230;45.382;10.998;2022-12-29T13:47:35;51.80;;;32.75;;
26582;SDS011;14230;45.382;10.998;2022-12-29T13:50:08;61.17;;;32.47;;
26582;SDS011;14230;45.382;10.998;2022-12-29T13:55:58;51.95;;;31.13;;
26582;SDS011;14230;45.382;10.998;2022-12-29T13:58:44;53.95;;;30.60;;
26582;SDS011;14230;45.382;10.998;2022-12-29T14:01:35;52.88;;;29.55;;
26582;SDS011;14230;45.382;10.998;2022-12-29T14:04:25;54.00;;;29.33;;
26582;SDS011;14230;45.382;10.998;2022-12-29T14:07:02;51.97;;;29.73;;
26582;SDS011;14230;45.382;10.998;2022-12-29T14:09:49;52.00;;;30.95;;
26582;SDS011;14230;45.382;10.998;2022-12-29T14:12:29;52.63;;;28.83;;
26582;SDS011;14230;45.382;10.998;2022-12-29T14:17:42;47.13;;;28.67;;
26582;SDS011;14230;45.382;10.998;2022-12-29T14:20:20;44.85;;;27.52;;
26582;SDS011;14230;45.382;10.998;2022-12-29T14:22:56;49.55;;;29.63;;
26582;SDS011;14230;45.382;10.998;2022-12-29T14:28:27;58.17;;;32.63;;
26582;SDS011;14230;45.382;10.998;2022-12-29T14:30:58;49.00;;;30.17;;
26582;SDS011;14230;45.382;10.998;2022-12-29T14:33:28;53.00;;;31.50;;
26582;SDS011;14230;45.382;10.998;2022-12-29T14:36:18;54.88;;;32.42;;
26582;SDS011;14230;45.382;10.998;2022-12-29T14:39:01;60.38;;;34.00;;
26582;SDS011;14230;45.382;10.998;2022-12-29T14:41:34;63.10;;;35.50;;
26582;SDS011;14230;45.382;10.998;2022-12-29T14:44:16;55.00;;;32.63;;
26582;SDS011;14230;45.382;10.998;2022-12-29T14:46:54;55.55;;;33.10;;
26582;SDS011;14230;45.382;10.998;2022-12-29T14:49:28;57.55;;;32.38;;
26582;SDS011;14230;45.382;10.998;2022-12-29T14:52:06;52.80;;;32.67;;
26582;SDS011;14230;45.382;10.998;2022-12-29T14:54:45;59.00;;;32.60;;
26582;SDS011;14230;45.382;10.998;2022-12-29T14:57:20;73.75;;;39.15;;
26582;SDS011;14230;45.382;10.998;2022-12-29T14:59:53;51.35;;;31.55;;
26582;SDS011;14230;45.382;10.998;2022-12-29T15:02:25;43.22;;;25.95;;
26582;SDS011;14230;45.382;10.998;2022-12-29T15:04:59;54.22;;;32.30;;
26582;SDS011;14230;45.382;10.998;2022-12-29T15:07:29;57.00;;;33.78;;
26582;SDS011;14230;45.382;10.998;2022-12-29T15:10:07;65.72;;;34.90;;
26582;SDS011;14230;45.382;10.998;2022-12-29T15:12:43;69.20;;;41.22;;
26582;SDS011;14230;45.382;10.998;2022-12-29T15:15:20;61.63;;;34.03;;
26582;SDS011;14230;45.382;10.998;2022-12-29T15:17:48;63.78;;;36.78;;
26582;SDS011;14230;45.382;10.998;2022-12-29T15:20:26;61.65;;;36.88;;
26582;SDS011;14230;45.382;10.998;2022-12-29T15:25:29;61.45;;;34.85;;
26582;SDS011;14230;45.382;10.998;2022-12-29T15:28:02;60.15;;;34.75;;
26582;SDS011;14230;45.382;10.998;2022-12-29T15:30:31;67.53;;;38.65;;
26582;SDS011;14230;45.382;10.998;2022-12-29T15:32:59;70.03;;;38.50;;
26582;SDS011;14230;45.382;10.998;2022-12-29T15:35:31;68.60;;;40.75;;
26582;SDS011;14230;45.382;10.998;2022-12-29T15:37:59;64.28;;;39.10;;
26582;SDS011;14230;45.382;10.998;2022-12-29T15:40:29;65.03;;;37.38;;
26582;SDS011;14230;45.382;10.998;2022-12-29T15:45:55;76.65;;;41.67;;
26582;SDS011;14230;45.382;10.998;2022-12-29T15:48:23;70.57;;;41.42;;
26582;SDS011;14230;45.382;10.998;2022-12-29T15:50:51;81.38;;;48.72;;
26582;SDS011;14230;45.382;10.998;2022-12-29T15:53:29;87.75;;;48.05;;
26582;SDS011;14230;45.382;10.998;2022-12-29T15:56:00;80.18;;;43.22;;
26582;SDS011;14230;45.382;10.998;2022-12-29T15:58:39;71.60;;;41.78;;
26582;SDS011;14230;45.382;10.998;2022-12-29T16:03:51;153.38;;;80.10;;
26582;SDS011;14230;45.382;10.998;2022-12-29T16:06:26;105.53;;;62.38;;
26582;SDS011;14230;45.382;10.998;2022-12-29T16:09:00;103.00;;;55.45;;
26582;SDS011;14230;45.382;10.998;2022-12-29T16:11:43;96.13;;;51.45;;
26582;SDS011;14230;45.382;10.998;2022-12-29T16:14:21;86.28;;;47.05;;
26582;SDS011;14230;45.382;10.998;2022-12-29T16:17:00;95.88;;;48.80;;
26582;SDS011;14230;45.382;10.998;2022-12-29T16:19:35;87.40;;;51.85;;
26582;SDS011;14230;45.382;10.998;2022-12-29T16:22:52;110.53;;;61.47;;
26582;SDS011;14230;45.382;10.998;2022-12-29T16:24:55;106.85;;;56.35;;
26582;SDS011;14230;45.382;10.998;2022-12-29T16:27:32;102.78;;;54.13;;
26582;SDS011;14230;45.382;10.998;2022-12-29T16:30:07;103.65;;;52.67;;
26582;SDS011;14230;45.382;10.998;2022-12-29T16:32:59;90.20;;;47.75;;
26582;SDS011;14230;45.382;10.998;2022-12-29T16:35:29;99.20;;;49.75;;
26582;SDS011;14230;45.382;10.998;2022-12-29T16:38:30;99.38;;;52.08;;
26582;SDS011;14230;45.382;10.998;2022-12-29T16:41:00;105.10;;;53.90;;
26582;SDS011;14230;45.382;10.998;2022-12-29T16:43:30;106.90;;;53.58;;
26582;SDS011;14230;45.382;10.998;2022-12-29T16:48:27;99.10;;;51.67;;
26582;SDS011;14230;45.382;10.998;2022-12-29T16:51:39;104.00;;;51.28;;
26582;SDS011;14230;45.382;10.998;2022-12-29T16:53:56;102.65;;;50.97;;